createdAt,value
2018-07-23T00:01:04.075Z,12.05
2018-07-23T00:03:31.869Z,12.43
2018-07-23T00:05:59.678Z,10.03
2018-07-23T00:08:27.556Z,10.15
2018-07-23T00:10:55.425Z,10.68
2018-07-23T00:13:24.237Z,12.25
2018-07-23T00:15:52.044Z,9.63
2018-07-23T00:18:20.924Z,8.85
2018-07-23T00:20:48.746Z,9.53
2018-07-23T00:23:16.521Z,8.30
2018-07-23T00:25:44.301Z,8.85
2018-07-23T00:28:12.149Z,8.50
2018-07-23T00:30:39.944Z,8.30
2018-07-23T00:33:07.806Z,9.60
2018-07-23T00:35:35.586Z,9.78
2018-07-23T00:38:03.447Z,9.05
2018-07-23T00:40:31.259Z,9.40
2018-07-23T00:42:59.046Z,12.35
2018-07-23T00:45:26.920Z,10.43
2018-07-23T00:47:54.645Z,9.88
2018-07-23T00:50:29.518Z,10.58
2018-07-23T00:52:57.331Z,9.60
2018-07-23T00:55:25.164Z,9.88
2018-07-23T00:57:53.242Z,9.33
2018-07-23T01:00:21.174Z,9.75
2018-07-23T01:02:48.993Z,9.43
2018-07-23T01:05:17.818Z,8.55
2018-07-23T01:07:45.613Z,7.65
2018-07-23T01:10:13.436Z,9.33
2018-07-23T01:12:41.262Z,8.58
2018-07-23T01:15:09.154Z,7.47
2018-07-23T01:17:37.000Z,8.30
2018-07-23T01:20:04.898Z,7.40
2018-07-23T01:22:32.793Z,8.20
2018-07-23T01:25:00.604Z,8.45
2018-07-23T01:27:29.535Z,7.58
2018-07-23T01:29:57.315Z,7.40
2018-07-23T01:32:25.161Z,7.72
2018-07-23T01:34:53.015Z,6.60
2018-07-23T01:37:21.865Z,6.95
2018-07-23T01:39:49.731Z,6.85
2018-07-23T01:42:17.550Z,7.55
2018-07-23T01:44:45.319Z,7.15
2018-07-23T01:47:13.801Z,7.62
2018-07-23T01:49:41.672Z,7.10
2018-07-23T01:54:35.274Z,7.28
2018-07-23T01:57:03.130Z,6.62
2018-07-23T01:59:30.919Z,7.10
2018-07-23T02:01:58.861Z,7.53
2018-07-23T02:04:26.736Z,6.97
2018-07-23T02:06:54.555Z,7.53
2018-07-23T02:09:22.428Z,6.22
2018-07-23T02:11:50.251Z,6.72
2018-07-23T02:14:18.185Z,7.45
2018-07-23T02:16:46.066Z,6.47
2018-07-23T02:19:13.889Z,7.15
2018-07-23T02:21:41.714Z,7.67
2018-07-23T02:24:09.572Z,6.65
2018-07-23T02:26:37.386Z,8.63
2018-07-23T02:29:05.199Z,8.88
2018-07-23T02:31:33.132Z,7.40
2018-07-23T02:34:00.938Z,9.35
2018-07-23T02:36:28.741Z,8.55
2018-07-23T02:38:57.563Z,8.45
2018-07-23T02:41:25.450Z,8.70
2018-07-23T02:43:53.254Z,7.97
2018-07-23T02:46:21.089Z,9.23
2018-07-23T02:48:48.935Z,8.43
2018-07-23T02:51:16.747Z,7.80
2018-07-23T02:54:10.626Z,8.80
2018-07-23T02:56:38.522Z,9.30
2018-07-23T02:59:06.346Z,8.30
2018-07-23T03:01:34.173Z,9.45
2018-07-23T03:04:02.024Z,8.58
2018-07-23T03:06:29.805Z,8.88
2018-07-23T03:08:57.828Z,8.75
2018-07-23T03:11:26.003Z,9.03
2018-07-23T03:13:53.825Z,8.60
2018-07-23T03:16:21.678Z,9.48
2018-07-23T03:18:49.890Z,10.18
2018-07-23T03:21:17.683Z,9.25
2018-07-23T03:23:45.479Z,8.50
2018-07-23T03:26:13.313Z,9.55
2018-07-23T03:28:41.135Z,9.80
2018-07-23T03:31:08.943Z,9.23
2018-07-23T03:33:36.726Z,10.13
2018-07-23T03:36:04.593Z,10.90
2018-07-23T03:38:32.389Z,11.28
2018-07-23T03:41:00.194Z,10.32
2018-07-23T03:43:27.985Z,10.82
2018-07-23T03:45:55.755Z,11.43
2018-07-23T03:48:23.583Z,13.72
2018-07-23T03:50:51.354Z,12.35
2018-07-23T03:53:19.116Z,11.15
2018-07-23T03:55:46.865Z,11.12
2018-07-23T03:58:14.645Z,11.88
2018-07-23T04:00:42.398Z,11.75
2018-07-23T04:03:10.115Z,11.97
2018-07-23T04:05:37.896Z,11.50
2018-07-23T04:08:05.688Z,12.45
2018-07-23T04:10:34.539Z,12.07
2018-07-23T04:13:02.372Z,12.93
2018-07-23T04:15:55.186Z,12.98
2018-07-23T04:18:23.089Z,12.70
2018-07-23T04:20:50.921Z,13.10
2018-07-23T04:23:18.716Z,12.35
2018-07-23T04:25:46.524Z,13.30
2018-07-23T04:28:14.266Z,12.30
2018-07-23T04:30:42.110Z,12.47
2018-07-23T04:33:09.884Z,13.25
2018-07-23T04:35:38.661Z,13.03
2018-07-23T04:38:06.429Z,13.22
2018-07-23T04:40:34.216Z,11.75
2018-07-23T04:43:01.998Z,12.33
2018-07-23T04:45:33.309Z,12.37
2018-07-23T04:48:01.064Z,11.93
2018-07-23T04:50:29.419Z,12.40
2018-07-23T04:56:13.736Z,13.08
2018-07-23T04:58:41.658Z,12.73
2018-07-23T05:01:09.647Z,12.35
2018-07-23T05:03:37.716Z,11.55
2018-07-23T05:06:18.378Z,12.18
2018-07-23T05:08:46.288Z,11.88
2018-07-23T05:11:15.463Z,11.80
2018-07-23T05:13:43.421Z,11.68
2018-07-23T05:16:17.368Z,12.23
2018-07-23T05:18:45.317Z,12.88
2018-07-23T05:21:20.382Z,11.95
2018-07-23T05:23:48.271Z,12.47
2018-07-23T05:26:17.345Z,12.73
2018-07-23T05:28:45.202Z,11.93
2018-07-23T05:31:14.295Z,10.82
2018-07-23T05:33:42.263Z,12.70
2018-07-23T05:36:12.233Z,11.22
2018-07-23T05:38:40.270Z,11.38
2018-07-23T05:41:08.230Z,11.43
2018-07-23T05:43:36.206Z,11.73
2018-07-23T05:46:05.274Z,11.48
2018-07-23T05:48:33.211Z,11.57
2018-07-23T05:51:01.174Z,11.83
2018-07-23T05:53:29.057Z,11.88
2018-07-23T05:55:56.916Z,12.03
2018-07-23T05:58:24.821Z,11.73
2018-07-23T06:00:52.605Z,12.07
2018-07-23T06:03:21.544Z,12.63
2018-07-23T06:05:49.353Z,13.70
2018-07-23T06:08:17.350Z,12.70
2018-07-23T06:10:45.113Z,12.33
2018-07-23T06:13:14.088Z,11.95
2018-07-23T06:15:41.800Z,11.38
2018-07-23T06:18:09.787Z,11.88
2018-07-23T06:20:37.624Z,11.75
2018-07-23T06:23:05.556Z,12.28
2018-07-23T06:25:33.495Z,10.68
2018-07-23T06:28:01.372Z,10.68
2018-07-23T06:30:30.227Z,11.45
2018-07-23T06:32:58.027Z,10.93
2018-07-23T06:35:25.890Z,10.32
2018-07-23T06:37:53.711Z,10.70
2018-07-23T06:40:23.640Z,10.75
2018-07-23T06:42:51.626Z,11.10
2018-07-23T06:45:20.560Z,10.40
2018-07-23T06:47:48.419Z,10.15
2018-07-23T06:50:17.871Z,10.08
2018-07-23T06:52:45.765Z,10.10
2018-07-23T06:55:13.582Z,9.63
2018-07-23T06:57:47.952Z,11.10
2018-07-23T07:00:15.927Z,10.38
2018-07-23T07:02:43.881Z,9.45
2018-07-23T07:05:11.828Z,8.98
2018-07-23T07:07:39.893Z,9.75
2018-07-23T07:10:07.926Z,10.53
2018-07-23T07:12:52.767Z,10.63
2018-07-23T07:15:28.869Z,9.63
2018-07-23T07:17:56.656Z,9.50
2018-07-23T07:23:59.221Z,9.88
2018-07-23T07:26:27.040Z,10.63
2018-07-23T07:29:25.274Z,9.65
2018-07-23T07:31:53.066Z,9.93
2018-07-23T07:34:25.769Z,10.20
2018-07-23T07:36:53.612Z,11.08
2018-07-23T07:39:21.635Z,10.13
2018-07-23T07:41:49.460Z,9.55
2018-07-23T07:44:17.267Z,9.80
2018-07-23T07:46:46.277Z,10.25
2018-07-23T07:49:14.079Z,9.98
2018-07-23T07:51:42.026Z,8.90
2018-07-23T07:54:09.867Z,9.53
2018-07-23T07:56:37.993Z,9.08
2018-07-23T07:59:05.823Z,9.08
2018-07-23T08:01:33.916Z,9.38
2018-07-23T08:04:01.830Z,8.50
2018-07-23T08:06:31.891Z,9.43
2018-07-23T08:08:59.692Z,9.65
2018-07-23T08:15:02.309Z,8.55
2018-07-23T08:17:30.334Z,8.78
2018-07-23T08:20:01.227Z,9.18
2018-07-23T08:22:30.163Z,8.68
2018-07-23T08:25:24.852Z,9.13
2018-07-23T08:27:52.759Z,8.35
2018-07-23T08:30:20.641Z,8.85
2018-07-23T08:32:48.511Z,8.10
2018-07-23T08:35:16.572Z,8.05
2018-07-23T08:37:44.558Z,9.28
2018-07-23T08:40:12.504Z,9.05
2018-07-23T08:42:40.415Z,8.05
2018-07-23T08:45:08.327Z,6.95
2018-07-23T08:47:37.111Z,7.42
2018-07-23T08:50:05.289Z,6.95
2018-07-23T08:52:33.219Z,8.65
2018-07-23T08:55:01.133Z,6.40
2018-07-23T08:57:29.178Z,6.85
2018-07-23T08:59:57.004Z,7.08
2018-07-23T09:02:24.949Z,7.80
2018-07-23T09:04:52.767Z,6.65
2018-07-23T09:07:20.643Z,6.42
2018-07-23T09:09:48.623Z,5.62
2018-07-23T09:12:16.502Z,5.58
2018-07-23T09:14:44.420Z,7.20
2018-07-23T09:17:12.327Z,7.37
2018-07-23T09:19:40.220Z,6.08
2018-07-23T09:22:08.158Z,11.40
2018-07-23T09:24:36.156Z,5.92
2018-07-23T09:27:04.071Z,6.92
2018-07-23T09:29:36.451Z,7.10
2018-07-23T09:32:04.343Z,6.17
2018-07-23T09:34:32.204Z,3.60
2018-07-23T09:37:00.004Z,4.97
2018-07-23T09:39:27.826Z,4.85
2018-07-23T09:41:55.643Z,5.35
2018-07-23T09:44:23.509Z,5.58
2018-07-23T09:46:51.303Z,4.62
2018-07-23T09:49:19.050Z,5.12
2018-07-23T09:51:46.814Z,5.05
2018-07-23T09:54:15.598Z,4.08
2018-07-23T09:56:43.373Z,7.25
2018-07-23T09:59:11.404Z,4.60
2018-07-23T10:01:39.423Z,4.42
2018-07-23T10:04:07.225Z,3.22
2018-07-23T10:06:35.034Z,3.70
2018-07-23T10:09:02.963Z,4.92
2018-07-23T10:11:30.795Z,4.05
2018-07-23T10:13:58.600Z,4.45
2018-07-23T10:16:26.394Z,3.77
2018-07-23T10:18:54.155Z,4.37
2018-07-23T10:21:22.013Z,3.95
2018-07-23T10:23:49.775Z,3.25
2018-07-23T10:26:17.578Z,4.15
2018-07-23T10:28:45.348Z,23.95
2018-07-23T10:31:13.131Z,3.08
2018-07-23T10:33:40.877Z,4.03
2018-07-23T10:36:08.680Z,2.50
2018-07-23T10:38:36.503Z,2.00
2018-07-23T10:41:04.315Z,2.92
2018-07-23T10:43:32.131Z,3.65
2018-07-23T10:45:59.925Z,2.45
2018-07-23T10:48:36.006Z,2.05
2018-07-23T10:51:12.720Z,2.80
2018-07-23T10:53:40.603Z,2.77
2018-07-23T10:56:08.497Z,2.40
2018-07-23T10:58:36.415Z,1.75
2018-07-23T11:01:04.332Z,2.95
2018-07-23T11:03:32.207Z,2.45
2018-07-23T11:06:00.079Z,2.27
2018-07-23T11:08:27.963Z,2.65
2018-07-23T11:10:55.824Z,3.05
2018-07-23T11:13:23.680Z,2.72
2018-07-23T11:15:51.556Z,2.98
2018-07-23T11:18:19.501Z,2.95
2018-07-23T11:20:47.389Z,3.15
2018-07-23T11:23:15.298Z,3.17
2018-07-23T11:25:43.242Z,2.87
2018-07-23T11:28:11.195Z,3.22
2018-07-23T11:30:39.067Z,5.00
2018-07-23T11:33:06.974Z,2.83
2018-07-23T11:35:34.952Z,2.17
2018-07-23T11:38:02.873Z,3.47
2018-07-23T11:40:30.785Z,2.90
2018-07-23T11:42:58.752Z,2.98
2018-07-23T11:45:26.748Z,2.40
2018-07-23T11:47:54.654Z,2.47
2018-07-23T11:50:24.021Z,2.65
2018-07-23T11:52:51.909Z,2.10
2018-07-23T11:55:19.751Z,2.95
2018-07-23T11:57:47.584Z,2.58
2018-07-23T12:00:16.886Z,4.35
2018-07-23T12:02:45.101Z,3.72
2018-07-23T12:05:12.956Z,3.55
2018-07-23T12:07:40.810Z,2.58
2018-07-23T12:10:09.671Z,3.00
2018-07-23T12:12:37.549Z,4.08
2018-07-23T12:15:05.419Z,2.83
2018-07-23T12:17:33.365Z,2.05
2018-07-23T12:20:01.187Z,2.02
2018-07-23T12:22:28.937Z,1.92
2018-07-23T12:24:56.793Z,3.70
2018-07-23T12:27:39.228Z,2.40
2018-07-23T12:30:07.172Z,2.30
2018-07-23T12:32:34.989Z,2.52
2018-07-23T12:35:02.901Z,2.35
2018-07-23T12:37:30.818Z,3.10
2018-07-23T12:39:58.686Z,2.85
2018-07-23T12:42:26.544Z,2.20
2018-07-23T12:44:54.442Z,3.45
2018-07-23T12:47:22.376Z,5.15
2018-07-23T12:49:50.275Z,3.62
2018-07-23T12:52:18.230Z,4.33
2018-07-23T12:54:46.160Z,3.15
2018-07-23T12:57:13.975Z,3.35
2018-07-23T12:59:41.841Z,3.62
2018-07-23T13:02:09.757Z,3.87
2018-07-23T13:04:37.593Z,2.90
2018-07-23T13:07:05.415Z,3.08
2018-07-23T13:09:33.209Z,3.95
2018-07-23T13:12:01.093Z,4.12
2018-07-23T13:14:28.952Z,1.92
2018-07-23T13:16:56.826Z,2.58
2018-07-23T13:19:24.786Z,6.40
2018-07-23T13:21:52.914Z,1.80
2018-07-23T13:24:20.760Z,3.77
2018-07-23T13:26:48.568Z,3.22
2018-07-23T13:29:16.474Z,3.00
2018-07-23T13:31:44.379Z,2.08
2018-07-23T13:34:12.212Z,1.92
2018-07-23T13:36:40.045Z,1.55
2018-07-23T13:39:09.753Z,2.25
2018-07-23T13:41:37.557Z,2.12
2018-07-23T13:44:06.421Z,2.35
2018-07-23T13:46:34.331Z,2.42
2018-07-23T13:49:02.194Z,1.70
2018-07-23T13:51:30.047Z,1.67
2018-07-23T13:53:57.968Z,1.70
2018-07-23T13:56:25.805Z,1.37
2018-07-23T13:58:53.676Z,1.98
2018-07-23T14:01:21.549Z,2.70
2018-07-23T14:03:49.496Z,1.85
2018-07-23T14:06:17.309Z,1.72
2018-07-23T14:08:45.235Z,2.52
2018-07-23T14:11:13.137Z,2.00
2018-07-23T14:13:41.030Z,1.90
2018-07-23T14:16:09.006Z,2.02
2018-07-23T14:18:37.839Z,2.00
2018-07-23T14:21:05.817Z,2.10
2018-07-23T14:23:33.656Z,1.35
2018-07-23T14:26:01.677Z,1.80
2018-07-23T14:28:30.515Z,1.62
2018-07-23T14:30:58.408Z,1.60
2018-07-23T14:33:26.538Z,1.72
2018-07-23T14:35:54.684Z,1.37
2018-07-23T14:38:22.504Z,2.05
2018-07-23T14:40:50.369Z,1.30
2018-07-23T14:43:18.309Z,1.32
2018-07-23T14:45:46.177Z,1.85
2018-07-23T14:48:14.036Z,1.95
2018-07-23T14:50:43.050Z,1.90
2018-07-23T14:53:10.866Z,2.95
2018-07-23T14:55:38.774Z,1.80
2018-07-23T14:58:06.633Z,1.85
2018-07-23T15:00:34.632Z,1.80
2018-07-23T15:03:02.571Z,1.87
2018-07-23T15:05:31.468Z,1.85
2018-07-23T15:08:00.605Z,1.22
2018-07-23T15:10:28.456Z,1.85
2018-07-23T15:12:56.370Z,1.82
2018-07-23T15:15:45.383Z,1.55
2018-07-23T15:18:13.543Z,2.20
2018-07-23T15:20:41.438Z,1.92
2018-07-23T15:23:57.203Z,1.67
2018-07-23T15:26:25.129Z,1.47
2018-07-23T15:29:14.943Z,2.00
2018-07-23T15:31:42.896Z,1.65
2018-07-23T15:37:33.699Z,1.85
2018-07-23T15:40:45.719Z,1.90
2018-07-23T15:43:13.629Z,2.20
2018-07-23T15:45:42.718Z,1.85
2018-07-23T15:48:10.509Z,2.10
2018-07-23T15:50:43.911Z,2.15
2018-07-23T15:53:11.862Z,1.82
2018-07-23T15:55:44.393Z,2.25
2018-07-23T15:58:12.348Z,1.87
2018-07-23T16:01:07.327Z,2.08
2018-07-23T16:03:35.211Z,2.40
2018-07-23T16:06:09.031Z,2.00
2018-07-23T16:08:36.958Z,1.45
2018-07-23T16:11:27.773Z,2.08
2018-07-23T16:13:55.716Z,2.45
2018-07-23T16:17:00.048Z,2.40
2018-07-23T16:19:42.219Z,2.00
2018-07-23T16:22:10.212Z,2.30
2018-07-23T16:24:38.055Z,2.15
2018-07-23T16:27:05.957Z,2.30
2018-07-23T16:29:33.754Z,2.42
2018-07-23T16:32:01.682Z,2.40
2018-07-23T16:34:29.583Z,2.40
2018-07-23T16:36:59.488Z,2.42
2018-07-23T16:39:27.339Z,2.02
2018-07-23T16:41:55.294Z,2.47
2018-07-23T16:44:24.178Z,2.08
2018-07-23T16:46:52.068Z,2.20
2018-07-23T16:49:19.918Z,2.05
2018-07-23T16:51:47.872Z,2.70
2018-07-23T16:54:15.840Z,2.42
2018-07-23T16:56:43.833Z,2.52
2018-07-23T16:59:11.709Z,2.42
2018-07-23T17:01:39.596Z,2.37
2018-07-23T17:04:07.456Z,2.08
2018-07-23T17:06:35.398Z,2.50
2018-07-23T17:09:05.042Z,2.15
2018-07-23T17:11:32.968Z,2.10
2018-07-23T17:14:00.878Z,2.10
2018-07-23T17:16:28.756Z,2.37
2018-07-23T17:18:56.577Z,1.90
2018-07-23T17:21:24.403Z,3.05
2018-07-23T17:23:52.366Z,3.27
2018-07-23T17:26:20.237Z,5.03
2018-07-23T17:28:48.224Z,7.35
2018-07-23T17:31:17.132Z,5.55
2018-07-23T17:33:45.034Z,5.00
2018-07-23T17:36:12.988Z,2.58
2018-07-23T17:38:40.884Z,10.03
2018-07-23T17:41:13.242Z,3.42
2018-07-23T17:43:41.147Z,2.95
2018-07-23T17:46:17.751Z,2.70
2018-07-23T17:48:45.684Z,2.50
2018-07-23T17:51:41.896Z,2.75
2018-07-23T17:54:09.695Z,1.80
2018-07-23T17:57:08.291Z,2.15
2018-07-23T17:59:36.238Z,1.95
2018-07-23T18:02:04.275Z,1.90
2018-07-23T18:04:32.280Z,2.37
2018-07-23T18:07:11.487Z,2.05
2018-07-23T18:09:39.378Z,1.90
2018-07-23T18:12:34.486Z,2.30
2018-07-23T18:15:02.417Z,1.95
2018-07-23T18:17:33.658Z,1.80
2018-07-23T18:20:01.563Z,2.52
2018-07-23T18:22:34.767Z,2.35
2018-07-23T18:25:02.769Z,1.98
2018-07-23T18:27:31.628Z,1.90
2018-07-23T18:29:59.537Z,1.98
2018-07-23T18:32:27.474Z,1.92
2018-07-23T18:34:55.334Z,2.12
2018-07-23T18:37:23.216Z,2.40
2018-07-23T18:39:51.111Z,2.30
2018-07-23T18:42:18.995Z,2.05
2018-07-23T18:44:46.915Z,2.17
2018-07-23T18:47:14.874Z,2.20
2018-07-23T18:49:50.778Z,2.25
2018-07-23T18:52:19.391Z,2.12
2018-07-23T18:54:49.369Z,2.47
2018-07-23T18:57:17.313Z,2.15
2018-07-23T18:59:45.281Z,2.15
2018-07-23T19:02:14.397Z,2.58
2018-07-23T19:04:42.374Z,1.70
2018-07-23T19:07:10.303Z,2.20
2018-07-23T19:09:38.186Z,2.83
2018-07-23T19:12:06.512Z,2.72
2018-07-23T19:14:34.412Z,2.02
2018-07-23T19:17:03.157Z,2.77
2018-07-23T19:19:31.065Z,2.55
2018-07-23T19:21:59.030Z,2.75
2018-07-23T19:24:26.977Z,2.85
2018-07-23T19:26:54.866Z,2.77
2018-07-23T19:29:22.814Z,2.70
2018-07-23T19:31:50.894Z,2.20
2018-07-23T19:34:18.833Z,2.37
2018-07-23T19:36:46.738Z,2.52
2018-07-23T19:39:15.811Z,3.05
2018-07-23T19:41:43.730Z,2.50
2018-07-23T19:44:11.855Z,3.17
2018-07-23T19:46:39.968Z,2.60
2018-07-23T19:49:07.867Z,3.30
2018-07-23T19:51:35.883Z,3.15
2018-07-23T19:54:03.917Z,3.25
2018-07-23T19:59:31.291Z,3.83
2018-07-23T20:01:59.104Z,2.92
2018-07-23T20:04:26.959Z,3.20
2018-07-23T20:06:54.836Z,3.05
2018-07-23T20:09:22.656Z,3.20
2018-07-23T20:11:51.518Z,3.60
2018-07-23T20:14:19.401Z,4.10
2018-07-23T20:16:48.244Z,3.90
2018-07-23T20:19:16.046Z,4.28
2018-07-23T20:21:46.324Z,4.78
2018-07-23T20:24:14.182Z,5.55
2018-07-23T20:26:42.033Z,7.50
2018-07-23T20:29:14.413Z,4.78
2018-07-23T20:31:42.227Z,3.67
2018-07-23T20:34:10.089Z,4.33
2018-07-23T20:36:38.160Z,4.10
2018-07-23T20:39:07.833Z,5.25
2018-07-23T20:41:35.859Z,4.67
2018-07-23T20:44:05.415Z,5.28
2018-07-23T20:46:33.306Z,4.42
2018-07-23T20:49:01.147Z,4.60
2018-07-23T20:52:12.445Z,5.35
2018-07-23T20:57:06.254Z,5.20
2018-07-23T20:59:34.213Z,5.33
2018-07-23T21:02:02.223Z,5.80
2018-07-23T21:04:30.216Z,4.65
2018-07-23T21:06:58.085Z,5.22
2018-07-23T21:09:25.883Z,6.05
2018-07-23T21:11:53.817Z,5.67
2018-07-23T21:14:22.743Z,5.25
2018-07-23T21:16:50.603Z,5.58
2018-07-23T21:19:18.599Z,5.28
2018-07-23T21:21:53.585Z,5.55
2018-07-23T21:24:21.561Z,6.08
2018-07-23T21:26:49.445Z,6.05
2018-07-23T21:29:17.322Z,5.40
2018-07-23T21:31:45.210Z,5.40
2018-07-23T21:34:13.009Z,4.85
2018-07-23T21:36:40.905Z,5.75
2018-07-23T21:39:09.619Z,5.50
2018-07-23T21:41:37.520Z,6.15
2018-07-23T21:44:05.358Z,5.90
2018-07-23T21:46:33.234Z,6.67
2018-07-23T21:49:01.117Z,6.37
2018-07-23T21:51:29.115Z,6.60
2018-07-23T21:53:56.994Z,7.67
2018-07-23T21:56:46.074Z,7.53
2018-07-23T21:59:26.782Z,6.97
2018-07-23T22:01:54.809Z,6.67
2018-07-23T22:04:22.814Z,7.30
2018-07-23T22:06:50.829Z,6.15
2018-07-23T22:09:18.716Z,6.53
2018-07-23T22:11:46.632Z,6.85
2018-07-23T22:14:14.711Z,6.85
2018-07-23T22:16:42.653Z,6.35
2018-07-23T22:19:10.759Z,5.60
2018-07-23T22:21:38.789Z,5.45
2018-07-23T22:24:06.708Z,5.87
2018-07-23T22:26:34.698Z,6.12
2018-07-23T22:29:02.785Z,5.12
2018-07-23T22:31:30.743Z,5.50
2018-07-23T22:33:58.728Z,5.80
2018-07-23T22:36:26.691Z,5.42
2018-07-23T22:38:54.677Z,6.12
2018-07-23T22:41:22.523Z,5.80
2018-07-23T22:43:50.458Z,6.15
2018-07-23T22:46:18.372Z,5.85
2018-07-23T22:48:46.299Z,5.62
2018-07-23T22:51:14.195Z,6.58
2018-07-23T22:53:42.132Z,5.60
2018-07-23T22:56:10.042Z,7.97
2018-07-23T22:58:38.076Z,5.92
2018-07-23T23:01:06.007Z,7.30
2018-07-23T23:03:33.907Z,6.80
2018-07-23T23:06:01.768Z,6.55
2018-07-23T23:08:29.708Z,7.37
2018-07-23T23:10:57.571Z,7.37
2018-07-23T23:13:25.487Z,5.85
2018-07-23T23:15:53.360Z,6.90
2018-07-23T23:18:21.186Z,6.65
2018-07-23T23:20:49.171Z,7.20
2018-07-23T23:23:17.002Z,6.85
2018-07-23T23:25:44.853Z,7.08
2018-07-23T23:28:12.717Z,6.85
2018-07-23T23:30:40.531Z,7.15
2018-07-23T23:33:08.378Z,7.55
2018-07-23T23:35:36.224Z,7.40
2018-07-23T23:38:04.088Z,6.58
2018-07-23T23:40:31.904Z,7.05
2018-07-23T23:42:59.736Z,6.97
2018-07-23T23:45:27.570Z,7.45
2018-07-23T23:47:55.394Z,7.60
2018-07-23T23:50:23.255Z,7.65
2018-07-23T23:52:51.100Z,6.65
2018-07-23T23:55:18.962Z,8.00
2018-07-23T23:58:27.968Z,8.35
